You are not logged in, Click here to log in
ICAO: RCSS Country: 臺北市松山區敦化北路340-9號
Latitude: 25.0676 Longitude: 121.553
Total Arrivals: 288 Total Departures: 255
Latest Arrival: CI883C (ZSFZ-RCSS)Jason. Li Latest Departure: BR192 (RCSS-RJTT)Jason. Li
Scenery:
METAR : RCSS 240900Z 11016KT 9999 FEW025 29/22 Q1010 NOSIG RMK A2985

臺北松山機場TSA